Time;durP1;ratioP1;P1;durP2;ratioP2;P2;SDS_P1;SDS_P2;PMS_P1;PMS_P2;Temp;Humidity;BMP_temperature;BMP_pressure;BME280_temperature;BME280_humidity;BME280_pressure;Samples;Min_cycle;Max_cycle;Signal;HPM_P1;HPM_P2
2023/02/07 00:01:42;;;;;;;14.00;9.30;;;;;;;-3.31;72.66;100935.36;107328;1256;75051;-39
2023/02/07 00:04:10;;;;;;;15.40;9.30;;;;;;;-3.27;72.74;100933.39;107317;1256;69931;-39
2023/02/07 00:06:39;;;;;;;17.40;10.40;;;;;;;-3.26;72.81;100928.80;107279;1256;73877;-39
2023/02/07 00:09:08;;;;;;;16.50;10.10;;;;;;;-3.28;72.71;100925.15;107349;1259;60804;-39
2023/02/07 00:11:39;;;;;;;17.40;10.30;;;;;;;-3.28;73.03;100923.52;107338;1256;61542;-39
2023/02/07 00:14:10;;;;;;;14.90;9.20;;;;;;;-3.29;72.87;100923.13;107420;1260;75045;-39
2023/02/07 00:16:39;;;;;;;15.70;10.20;;;;;;;-3.31;73.25;100922.60;107341;1256;69860;-39
2023/02/07 00:19:07;;;;;;;15.80;9.50;;;;;;;-3.28;73.10;100915.58;107343;1256;73828;-39
2023/02/07 00:21:35;;;;;;;15.60;8.80;;;;;;;-3.22;73.07;100912.84;107293;1256;60376;-39
2023/02/07 00:24:04;;;;;;;14.70;9.20;;;;;;;-3.19;73.26;100909.45;107298;1256;61532;-40
2023/02/07 00:26:33;;;;;;;15.80;10.00;;;;;;;-3.18;73.31;100908.84;107332;1256;75111;-40
2023/02/07 00:29:01;;;;;;;15.50;10.20;;;;;;;-3.18;73.44;100904.55;107551;1253;69923;-40
2023/02/07 00:31:31;;;;;;;16.30;10.40;;;;;;;-3.19;73.45;100905.90;107568;1253;73877;-40
2023/02/07 00:34:03;;;;;;;17.30;10.30;;;;;;;-3.22;73.41;100904.04;106812;1253;1002913;-39
2023/02/07 00:36:33;;;;;;;14.50;9.70;;;;;;;-3.22;73.49;100901.64;107528;1258;59661;-39
2023/02/07 00:39:04;;;;;;;15.50;9.80;;;;;;;-3.17;73.41;100897.84;107517;1253;75019;-39
2023/02/07 00:41:33;;;;;;;14.30;9.60;;;;;;;-3.15;73.51;100896.65;107564;1253;70095;-39
2023/02/07 00:44:02;;;;;;;15.20;9.80;;;;;;;-3.13;73.72;100891.61;107561;1253;73885;-39
2023/02/07 00:46:33;;;;;;;12.90;9.20;;;;;;;-3.10;73.69;100891.61;107552;1253;60320;-40
2023/02/07 00:49:01;;;;;;;14.10;9.40;;;;;;;-3.10;73.60;100885.58;107578;1253;61149;-39
2023/02/07 00:51:32;;;;;;;16.40;10.10;;;;;;;-3.10;73.50;100885.35;107639;1253;75753;-39
2023/02/07 00:54:00;;;;;;;15.40;9.70;;;;;;;-3.15;73.54;100883.29;106820;1254;1003864;-39
2023/02/07 00:56:30;;;;;;;14.90;9.40;;;;;;;-3.13;73.77;100886.08;107535;1254;73301;-39
2023/02/07 00:58:58;;;;;;;14.80;9.80;;;;;;;-3.06;73.71;100889.89;107561;1253;60435;-40
2023/02/07 01:01:27;;;;;;;14.70;10.10;;;;;;;-3.05;73.88;100884.35;107613;1253;61543;-39
2023/02/07 01:03:57;;;;;;;16.00;10.20;;;;;;;-3.04;73.81;100879.29;107599;1257;75130;-39
2023/02/07 01:06:26;;;;;;;14.20;9.20;;;;;;;-3.03;74.05;100878.17;106825;1253;1003249;-39
2023/02/07 01:08:57;;;;;;;15.10;9.60;;;;;;;-3.03;74.00;100880.31;107535;1258;72091;-39
2023/02/07 01:11:28;;;;;;;14.90;9.20;;;;;;;-3.02;73.98;100878.83;107596;1258;60413;-39
2023/02/07 01:14:00;;;;;;;14.40;9.50;;;;;;;-2.93;74.16;100877.45;107558;1253;60431;-40
2023/02/07 01:16:31;;;;;;;14.30;9.10;;;;;;;-2.81;74.01;100875.29;107538;1253;75004;-39
2023/02/07 01:19:08;;;;;;;14.20;9.50;;;;;;;-2.79;73.54;100873.36;107593;1253;70071;-40
2023/02/07 01:21:37;;;;;;;12.40;9.10;;;;;;;-2.84;73.76;100869.98;107553;1258;73870;-40
2023/02/07 01:24:06;;;;;;;16.00;9.10;;;;;;;-2.87;73.82;100865.61;107573;1254;60816;-40
2023/02/07 01:26:36;;;;;;;10.60;7.10;;;;;;;-2.92;73.96;100861.54;107533;1255;62102;-40
2023/02/07 01:29:05;;;;;;;14.60;10.00;;;;;;;-2.93;74.17;100860.98;107545;1253;73659;-40
2023/02/07 01:31:36;;;;;;;14.70;9.50;;;;;;;-2.91;74.24;100862.77;107506;1257;67863;-41
2023/02/07 01:34:04;;;;;;;13.90;9.20;;;;;;;-2.83;74.13;100860.70;107480;1258;73726;-40
2023/02/07 01:36:33;;;;;;;13.10;8.70;;;;;;;-2.74;74.06;100857.46;107571;1254;60776;-40
2023/02/07 01:39:03;;;;;;;15.50;9.70;;;;;;;-2.71;74.00;100860.38;106644;1253;1002988;-39
2023/02/07 01:41:34;;;;;;;13.60;9.50;;;;;;;-2.72;73.99;100857.54;107555;1253;74806;-39
2023/02/07 01:44:07;;;;;;;15.20;9.40;;;;;;;-2.72;74.01;100859.30;107584;1253;69946;-39
2023/02/07 01:46:37;;;;;;;16.20;9.10;;;;;;;-2.74;74.20;100856.55;107532;1254;72937;-39
2023/02/07 01:49:10;;;;;;;15.10;9.30;;;;;;;-2.77;74.16;100856.49;107497;1253;62359;-40
2023/02/07 01:51:41;;;;;;;13.10;8.90;;;;;;;-2.73;74.08;100858.59;107521;1254;61528;-39
2023/02/07 01:54:10;;;;;;;15.40;9.70;;;;;;;-2.70;74.01;100853.55;107636;1258;75035;-39
2023/02/07 01:56:41;;;;;;;10.20;6.60;;;;;;;-2.72;74.21;100853.47;107618;1257;69158;-39
2023/02/07 01:59:10;;;;;;;13.90;9.10;;;;;;;-2.77;74.40;100846.61;107555;1253;73945;-39
2023/02/07 02:01:40;;;;;;;14.20;9.10;;;;;;;-2.77;74.58;100850.39;107520;1257;60675;-39
2023/02/07 02:04:10;;;;;;;14.40;9.70;;;;;;;-2.79;74.86;100845.10;107535;1253;61503;-39
2023/02/07 02:06:39;;;;;;;17.00;9.70;;;;;;;-2.78;75.07;100844.89;107568;1258;75014;-39
2023/02/07 02:09:11;;;;;;;;;;;;;;;-2.72;75.24;100843.74;107365;1259;69859;-40
2023/02/07 02:11:50;;;;;;;14.50;8.70;;;;;;;-2.65;75.01;100843.63;107573;1253;72958;-40
2023/02/07 02:14:44;;;;;;;16.40;9.20;;;;;;;-2.55;75.02;100840.31;107369;1253;60568;-40
2023/02/07 02:17:27;;;;;;;15.10;9.20;;;;;;;-2.41;74.95;100840.41;107388;1259;60458;-40
2023/02/07 02:20:21;;;;;;;14.90;9.60;;;;;;;-2.30;74.90;100839.38;107510;1253;74614;-39
2023/02/07 02:23:05;;;;;;;15.00;9.20;;;;;;;-2.22;74.51;100833.09;107396;1255;69183;-40
2023/02/07 02:25:53;;;;;;;15.60;9.10;;;;;;;-2.16;74.48;100833.36;107581;1254;71629;-40
2023/02/07 02:28:40;;;;;;;13.50;9.60;;;;;;;-2.12;74.00;100832.67;106782;1253;1003583;-39
2023/02/07 02:31:17;;;;;;;15.80;9.10;;;;;;;-2.15;73.83;100830.88;107519;1254;61539;-39
2023/02/07 02:34:11;;;;;;;14.60;8.40;;;;;;;-2.16;73.52;100830.70;107580;1259;74545;-40
2023/02/07 02:36:55;;;;;;;13.20;8.80;;;;;;;-2.05;73.52;100826.73;107541;1259;69209;-39
2023/02/07 02:39:34;;;;;;;13.70;9.30;;;;;;;-1.98;73.52;100830.00;107588;1253;73581;-40
2023/02/07 02:42:15;;;;;;;14.70;9.00;;;;;;;-1.93;73.63;100828.86;107450;1259;61278;-40
2023/02/07 02:44:57;;;;;;;14.50;8.90;;;;;;;-1.85;73.56;100825.91;106067;1253;1003370;-39
2023/02/07 02:47:27;;;;;;;12.90;8.40;;;;;;;-1.79;73.23;100817.38;107549;1254;75038;-40
2023/02/07 02:49:56;;;;;;;15.30;9.10;;;;;;;-1.76;73.08;100819.94;107597;1258;68211;-40
2023/02/07 02:52:28;;;;;;;13.40;8.80;;;;;;;-1.75;72.82;100824.56;106840;1254;1015292;-40
2023/02/07 02:55:38;;;;;;;13.80;8.00;;;;;;;-1.72;72.74;100821.95;107516;1254;62211;-40
2023/02/07 02:58:35;;;;;;;12.90;8.60;;;;;;;-1.62;72.54;100819.87;107398;1254;60988;-40
2023/02/07 03:01:22;;;;;;;13.30;8.30;;;;;;;-1.53;72.25;100820.77;107258;1253;73905;-40
2023/02/07 03:03:54;;;;;;;12.20;7.90;;;;;;;-1.52;72.05;100819.71;107608;1257;69648;-39
2023/02/07 03:07:15;;;;;;;14.40;8.50;;;;;;;-1.52;72.20;100817.32;107572;1258;73593;-40
2023/02/07 03:09:56;;;;;;;12.20;7.90;;;;;;;-1.46;72.18;100817.61;107063;1259;60339;-39
2023/02/07 03:12:46;;;;;;;13.10;8.10;;;;;;;-1.43;72.24;100813.20;107508;1259;60412;-40
2023/02/07 03:15:57;;;;;;;13.00;8.50;;;;;;;-1.42;71.80;100812.40;106740;1259;1003420;-40
2023/02/07 03:18:46;;;;;;;12.00;7.40;;;;;;;-1.47;71.89;100806.80;107414;1253;69956;-40
2023/02/07 03:21:37;;;;;;;11.20;7.70;;;;;;;-1.48;71.81;100804.45;107556;1253;74134;-40
2023/02/07 03:24:10;;;;;;;12.90;7.40;;;;;;;-1.41;71.87;100802.63;107526;1259;62198;-40
2023/02/07 03:26:39;;;;;;;10.20;6.70;;;;;;;-1.30;71.45;100804.11;107532;1254;61088;-40
2023/02/07 03:29:08;;;;;;;12.90;7.40;;;;;;;-1.28;71.38;100798.71;107471;1254;75038;-40
2023/02/07 03:31:39;;;;;;;12.20;7.90;;;;;;;-1.28;71.21;100799.77;107383;1254;69902;-40
2023/02/07 03:34:10;;;;;;;13.10;7.90;;;;;;;-1.25;71.18;100800.45;107548;1258;71406;-40
2023/02/07 03:36:38;;;;;;;12.00;7.80;;;;;;;-1.22;71.11;100797.71;107357;1259;60387;-40
2023/02/07 03:39:07;;;;;;;11.50;7.30;;;;;;;-1.22;71.00;100800.43;107589;1255;60486;-40
2023/02/07 03:41:45;;;;;;;10.90;7.10;;;;;;;-1.21;70.88;100801.30;107555;1253;75077;-39
2023/02/07 03:44:14;;;;;;;11.60;7.10;;;;;;;-1.23;70.68;100807.02;107437;1258;68853;-39
2023/02/07 03:46:42;;;;;;;11.50;7.40;;;;;;;-1.26;70.63;100813.57;107324;1260;73903;-40
2023/02/07 03:49:13;;;;;;;10.00;6.50;;;;;;;-1.26;70.39;100814.42;107546;1253;60683;-39
2023/02/07 03:51:43;;;;;;;13.50;7.00;;;;;;;-1.19;70.48;100815.21;107511;1254;60451;-40
2023/02/07 03:54:11;;;;;;;10.70;6.80;;;;;;;-1.15;70.37;100818.67;107559;1257;74267;-40
2023/02/07 03:56:40;;;;;;;10.80;7.10;;;;;;;-1.13;70.51;100815.14;107547;1257;69636;-39
2023/02/07 03:59:08;;;;;;;10.10;7.00;;;;;;;-1.10;70.36;100815.06;107548;1259;73903;-40
2023/02/07 04:01:40;;;;;;;15.80;8.70;;;;;;;-1.10;70.10;100819.43;107526;1259;60666;-40
2023/02/07 04:04:10;;;;;;;13.00;8.40;;;;;;;-1.10;70.07;100819.55;107547;1254;60295;-39
2023/02/07 04:06:39;;;;;;;14.00;8.30;;;;;;;-1.11;70.11;100822.77;107537;1254;75043;-40
2023/02/07 04:09:11;;;;;;;13.60;8.10;;;;;;;-1.13;70.00;100825.62;107500;1258;69936;-40
2023/02/07 04:11:41;;;;;;;14.60;8.20;;;;;;;-1.14;70.17;100828.86;107499;1254;73316;-39
2023/02/07 04:14:09;;;;;;;13.10;8.20;;;;;;;-1.14;70.11;100830.02;107504;1257;60491;-40
2023/02/07 04:16:38;;;;;;;13.40;8.40;;;;;;;-1.10;70.01;100832.00;107526;1257;61404;-40
2023/02/07 04:19:06;;;;;;;11.70;8.40;;;;;;;-1.00;69.88;100833.55;107540;1258;75046;-40
2023/02/07 04:21:35;;;;;;;12.30;8.40;;;;;;;-0.94;69.66;100838.90;107552;1258;69929;-41
2023/02/07 04:24:04;;;;;;;12.50;8.70;;;;;;;-0.91;69.68;100836.98;106764;1254;1003758;-40
2023/02/07 04:26:35;;;;;;;12.00;8.80;;;;;;;-0.89;69.70;100835.55;107539;1255;60736;-40
2023/02/07 04:29:03;;;;;;;13.80;8.80;;;;;;;-0.90;69.41;100834.53;107514;1254;61506;-40
2023/02/07 04:31:33;;;;;;;12.50;8.00;;;;;;;-0.90;69.42;100835.86;107481;1254;74042;-41
2023/02/07 04:34:03;;;;;;;12.60;8.00;;;;;;;-0.96;69.27;100837.87;107565;1253;67688;-40
2023/02/07 04:36:31;;;;;;;15.50;8.60;;;;;;;-1.02;69.40;100839.13;107546;1254;71673;-40
2023/02/07 04:39:00;;;;;;;13.40;8.80;;;;;;;-1.03;69.63;100846.67;107490;1257;60718;-40
2023/02/07 04:41:29;;;;;;;13.50;8.60;;;;;;;-1.04;69.62;100850.96;107511;1258;61757;-40
2023/02/07 04:43:57;;;;;;;15.60;8.40;;;;;;;-1.04;69.53;100856.77;107535;1254;75065;-40
2023/02/07 04:46:27;;;;;;;17.90;9.20;;;;;;;-0.98;69.46;100861.79;107564;1258;69965;-40
2023/02/07 04:48:55;;;;;;;16.60;9.20;;;;;;;-0.95;69.53;100865.04;107508;1255;73809;-40
2023/02/07 04:51:24;;;;;;;16.30;9.00;;;;;;;-0.93;69.74;100867.98;107524;1253;60489;-40
2023/02/07 04:53:53;;;;;;;15.70;8.70;;;;;;;-0.90;69.76;100869.57;107560;1253;61487;-40
2023/02/07 04:56:22;;;;;;;18.00;9.10;;;;;;;-0.86;69.57;100865.62;107523;1256;73732;-40
2023/02/07 04:58:50;;;;;;;16.60;9.40;;;;;;;-0.84;69.40;100861.50;107524;1254;69784;-40
2023/02/07 05:01:19;;;;;;;14.30;9.10;;;;;;;-0.82;69.48;100863.08;107512;1253;73966;-40
2023/02/07 05:03:48;;;;;;;15.50;8.80;;;;;;;-0.83;69.23;100868.06;107535;1254;60822;-40
2023/02/07 05:06:16;;;;;;;16.70;8.80;;;;;;;-0.85;69.27;100869.91;106762;1253;1003592;-40
2023/02/07 05:08:46;;;;;;;;;;;;;;;-0.88;69.10;100870.98;107529;1254;74986;-40
2023/02/07 05:11:15;;;;;;;14.80;8.60;;;;;;;-0.97;69.39;100874.02;107534;1254;69954;-40
2023/02/07 05:13:44;;;;;;;15.40;8.70;;;;;;;-1.03;69.40;100874.51;107514;1254;73837;-40
2023/02/07 05:16:13;;;;;;;13.30;8.70;;;;;;;-0.98;69.41;100878.67;107467;1254;62468;-40
2023/02/07 05:18:42;;;;;;;9.50;6.70;;;;;;;-0.90;69.21;100879.09;107526;1254;61554;-40
2023/02/07 05:21:11;;;;;;;15.10;8.40;;;;;;;-0.85;69.15;100883.31;107504;1258;74820;-40
2023/02/07 05:23:39;;;;;;;13.50;8.70;;;;;;;-0.83;69.19;100889.99;106826;1258;1003496;-40
2023/02/07 05:26:08;;;;;;;12.90;8.70;;;;;;;-0.84;69.01;100891.69;107538;1254;74334;-40
2023/02/07 05:28:36;;;;;;;13.30;7.90;;;;;;;-0.88;68.88;100896.27;107525;1254;60783;-40
2023/02/07 05:31:05;;;;;;;10.90;7.10;;;;;;;-0.89;69.00;100894.88;107457;1254;61532;-40
2023/02/07 05:33:33;;;;;;;10.50;6.60;;;;;;;-0.90;68.99;100895.19;107485;1254;74827;-40
2023/02/07 05:36:03;;;;;;;11.40;7.60;;;;;;;-0.91;68.87;100895.85;107501;1254;69859;-40
2023/02/07 05:38:32;;;;;;;11.70;7.10;;;;;;;-0.95;69.07;100899.59;107435;1254;71345;-40
2023/02/07 05:41:00;;;;;;;10.10;7.10;;;;;;;-0.96;69.09;100899.78;105971;1253;1003208;-40
2023/02/07 05:43:29;;;;;;;10.70;7.10;;;;;;;-0.97;69.03;100906.48;107480;1254;61482;-40
2023/02/07 05:45:57;;;;;;;10.60;6.70;;;;;;;-0.98;69.05;100907.68;107491;1254;74952;-40
2023/02/07 05:48:26;;;;;;;11.50;6.90;;;;;;;-0.96;68.96;100908.67;107493;1254;67505;-40
2023/02/07 05:50:54;;;;;;;10.00;6.50;;;;;;;-0.88;68.93;100913.25;107460;1255;74071;-40
2023/02/07 05:53:23;;;;;;;11.90;6.90;;;;;;;-0.83;68.80;100912.14;107552;1254;59699;-40
2023/02/07 05:55:53;;;;;;;12.30;7.70;;;;;;;-0.83;68.78;100916.36;107459;1254;59974;-40
2023/02/07 05:58:22;;;;;;;13.30;7.90;;;;;;;-0.83;68.85;100921.89;107524;1253;75255;-40
2023/02/07 06:00:51;;;;;;;14.50;7.40;;;;;;;-0.84;68.69;100924.22;107535;1254;69678;-40
2023/02/07 06:03:19;;;;;;;10.60;7.70;;;;;;;-0.88;68.98;100925.86;107521;1257;72325;-40
2023/02/07 06:05:48;;;;;;;13.60;8.30;;;;;;;-0.93;68.82;100930.38;107460;1254;60430;-40
2023/02/07 06:08:16;;;;;;;13.10;8.10;;;;;;;-1.01;68.94;100934.84;107530;1254;60502;-40
2023/02/07 06:10:48;;;;;;;14.00;7.90;;;;;;;-1.07;68.90;100942.73;107483;1254;74785;-40
2023/02/07 06:13:17;;;;;;;11.00;7.50;;;;;;;-1.15;69.06;100944.95;107492;1254;67949;-40
2023/02/07 06:15:46;;;;;;;12.40;8.10;;;;;;;-1.14;69.37;100946.69;107471;1253;72787;-40
2023/02/07 06:18:15;;;;;;;12.00;7.80;;;;;;;-1.08;69.35;100952.20;107516;1254;60818;-40
2023/02/07 06:20:43;;;;;;;12.10;7.90;;;;;;;-1.10;69.40;100955.36;107527;1254;60307;-40
2023/02/07 06:23:11;;;;;;;13.40;8.70;;;;;;;-1.11;69.40;100950.71;107515;1254;75126;-40
2023/02/07 06:25:41;;;;;;;14.20;8.70;;;;;;;-1.11;69.12;100948.16;107527;1255;70153;-40
2023/02/07 06:28:10;;;;;;;14.20;9.00;;;;;;;-1.14;69.13;100945.72;107495;1254;72605;-40
2023/02/07 06:30:39;;;;;;;13.80;8.70;;;;;;;-1.21;68.92;100948.33;107486;1254;60815;-40
2023/02/07 06:33:07;;;;;;;12.80;8.60;;;;;;;-1.25;69.31;100948.52;107333;1254;164663;-40
2023/02/07 06:36:58;;;;;;;13.40;8.20;;;;;;;-1.30;69.61;100952.20;104238;1290;600386;-40
2023/02/07 06:39:26;;;;;;;14.60;8.80;;;;;;;-1.34;69.25;100954.03;106701;1267;62381;-40
2023/02/07 06:41:55;;;;;;;13.00;8.60;;;;;;;-1.32;69.62;100960.34;106771;1267;61159;-40
2023/02/07 06:44:23;;;;;;;15.30;8.60;;;;;;;-1.27;69.76;100957.08;106829;1267;73242;-40
2023/02/07 06:46:52;;;;;;;15.20;9.60;;;;;;;-1.23;69.45;100957.88;106778;1267;69916;-40
2023/02/07 06:49:21;;;;;;;9.80;6.70;;;;;;;-1.25;69.32;100955.20;107205;1257;73530;-40
2023/02/07 06:51:50;;;;;;;13.80;9.30;;;;;;;-1.18;69.84;100961.45;107203;1259;200550;-40
2023/02/07 06:54:18;;;;;;;16.10;10.30;;;;;;;-1.09;69.53;100963.96;107348;1254;61578;-40
2023/02/07 06:56:47;;;;;;;16.10;10.30;;;;;;;-1.05;68.89;100965.66;107405;1254;73314;-40
2023/02/07 06:59:16;;;;;;;15.40;9.90;;;;;;;-1.08;68.74;100969.39;107470;1254;70427;-40
2023/02/07 07:01:44;;;;;;;15.50;10.20;;;;;;;-1.05;69.01;100968.86;107496;1254;73707;-40
2023/02/07 07:04:17;;;;;;;14.50;10.40;;;;;;;-1.04;68.39;100969.89;107401;1254;60775;-40
2023/02/07 07:06:46;;;;;;;17.40;11.70;;;;;;;-1.07;68.79;100975.42;107419;1254;59521;-40
2023/02/07 07:09:14;;;;;;;15.60;11.20;;;;;;;-1.06;68.49;100976.55;107458;1254;73289;-40
2023/02/07 07:11:43;;;;;;;17.70;11.40;;;;;;;-1.10;68.40;100981.67;107460;1255;69958;-40
2023/02/07 07:14:12;;;;;;;15.70;11.00;;;;;;;-1.07;68.62;100981.70;107459;1254;73312;-40
2023/02/07 07:16:40;;;;;;;16.00;10.80;;;;;;;-1.03;67.89;100980.48;107445;1254;59827;-40
2023/02/07 07:19:09;;;;;;;15.10;9.90;;;;;;;-1.07;67.93;100972.83;107506;1254;61559;-40
2023/02/07 07:21:38;;;;;;;18.40;11.30;;;;;;;-1.02;67.67;100971.81;107495;1254;74152;-40
2023/02/07 07:24:06;;;;;;;15.10;10.70;;;;;;;-1.04;67.33;100972.59;107462;1254;70002;-40
2023/02/07 07:26:35;;;;;;;17.40;10.50;;;;;;;-1.08;67.69;100975.58;107480;1259;73890;-40
2023/02/07 07:29:17;;;;;;;17.80;10.70;;;;;;;-1.00;68.14;100978.84;107408;1254;60523;-40
2023/02/07 07:31:45;;;;;;;22.00;10.90;;;;;;;-0.89;67.26;100978.35;107465;1258;61500;-40
2023/02/07 07:34:14;;;;;;;19.70;13.70;;;;;;;-0.91;66.52;100980.20;107518;1254;71729;-40
2023/02/07 07:36:43;;;;;;;20.10;12.60;;;;;;;-1.03;65.95;100985.08;107444;1254;69838;-40
2023/02/07 07:39:12;;;;;;;17.30;11.90;;;;;;;-1.13;66.43;100993.79;107469;1254;73581;-40
2023/02/07 07:41:40;;;;;;;12.70;8.80;;;;;;;-1.13;66.95;100994.54;107495;1254;59477;-40
2023/02/07 07:44:11;;;;;;;16.90;11.30;;;;;;;-1.08;67.13;100995.64;107485;1254;61184;-41
2023/02/07 07:46:40;;;;;;;20.00;12.80;;;;;;;-1.02;67.05;100995.89;107689;1251;73911;-41
2023/02/07 07:49:08;;;;;;;22.00;13.50;;;;;;;-0.99;66.44;101001.69;107695;1251;69893;-41
2023/02/07 07:51:37;;;;;;;16.70;12.30;;;;;;;-1.02;66.23;101006.91;107738;1251;71877;-41
2023/02/07 07:54:05;;;;;;;21.40;13.10;;;;;;;-1.05;66.49;101011.81;106984;1251;1003542;-41
2023/02/07 07:56:35;;;;;;;;;;;;;;;-1.14;66.60;101017.63;107747;1251;60179;-41
2023/02/07 07:59:03;;;;;;;20.50;13.80;;;;;;;-1.27;66.44;101023.11;107719;1251;73199;-41
2023/02/07 08:01:39;;;;;;;23.60;14.10;;;;;;;-1.35;66.97;101023.58;107691;1251;70040;-41
2023/02/07 08:04:08;;;;;;;21.00;14.50;;;;;;;-1.36;67.43;101026.64;107705;1251;73967;-41
2023/02/07 08:06:37;;;;;;;23.60;13.50;;;;;;;-1.37;67.67;101028.37;106977;1251;1002957;-41
2023/02/07 08:09:05;;;;;;;24.00;16.40;;;;;;;-1.34;67.55;101036.05;107694;1251;60756;-41
2023/02/07 08:11:34;;;;;;;25.30;16.50;;;;;;;-1.36;67.45;101034.23;107711;1251;73988;-41
2023/02/07 08:14:02;;;;;;;24.00;16.60;;;;;;;-1.46;66.92;101038.85;107745;1251;69914;-41
2023/02/07 08:16:34;;;;;;;24.10;15.90;;;;;;;-1.49;67.10;101046.95;107658;1251;73861;-41
2023/02/07 08:19:03;;;;;;;25.50;15.90;;;;;;;-1.53;67.41;101053.04;107751;1251;60446;-41
2023/02/07 08:21:32;;;;;;;24.50;16.00;;;;;;;-1.57;67.43;101056.95;107700;1251;61227;-41
2023/02/07 08:24:00;;;;;;;24.30;15.70;;;;;;;-1.58;67.79;101059.64;107714;1251;74161;-41
2023/02/07 08:26:29;;;;;;;24.40;14.80;;;;;;;-1.56;68.07;101063.23;107700;1251;69811;-41
2023/02/07 08:28:57;;;;;;;25.70;16.40;;;;;;;-1.49;68.06;101065.77;107762;1251;72502;-41
2023/02/07 08:31:25;;;;;;;22.50;15.00;;;;;;;-1.47;67.70;101062.94;107715;1251;62357;-41
2023/02/07 08:33:54;;;;;;;23.30;15.90;;;;;;;-1.46;68.01;101069.91;107676;1252;61526;-40
2023/02/07 08:36:22;;;;;;;24.40;15.70;;;;;;;-1.43;68.08;101068.91;107726;1251;74245;-41
2023/02/07 08:38:51;;;;;;;26.00;16.30;;;;;;;-1.33;68.20;101068.23;107698;1251;69750;-41
2023/02/07 08:41:19;;;;;;;29.50;18.70;;;;;;;-1.23;67.96;101065.69;107681;1251;73841;-41
2023/02/07 08:43:47;;;;;;;26.80;17.30;;;;;;;-1.14;67.26;101064.78;107697;1256;60499;-41
2023/02/07 08:46:16;;;;;;;25.00;16.30;;;;;;;-1.13;66.81;101064.95;107709;1251;61161;-41
2023/02/07 08:48:45;;;;;;;26.40;15.50;;;;;;;-1.15;66.74;101064.02;107702;1251;74231;-41
2023/02/07 08:51:13;;;;;;;21.80;14.70;;;;;;;-1.08;66.69;101065.54;107727;1251;69800;-41
2023/02/07 08:53:42;;;;;;;21.50;14.40;;;;;;;-0.91;66.49;101062.62;107744;1251;72885;-41
2023/02/07 08:56:10;;;;;;;25.00;15.30;;;;;;;-0.81;66.08;101068.35;107730;1251;60813;-41
2023/02/07 08:58:39;;;;;;;23.70;14.80;;;;;;;-0.71;65.50;101064.59;107741;1251;61441;-41
2023/02/07 09:01:10;;;;;;;22.60;13.80;;;;;;;-0.75;64.78;101062.19;107693;1251;74248;-41
2023/02/07 09:03:39;;;;;;;21.20;14.20;;;;;;;-0.78;65.23;101069.15;107699;1251;68931;-41
2023/02/07 09:06:09;;;;;;;23.20;14.60;;;;;;;-0.69;65.92;101070.46;107645;1251;73937;-41
2023/02/07 09:08:37;;;;;;;15.50;10.00;;;;;;;-0.56;64.90;101070.98;107770;1251;60821;-41
2023/02/07 09:11:14;;;;;;;20.30;13.90;;;;;;;-0.55;64.47;101068.67;107693;1251;61350;-41
2023/02/07 09:13:45;;;;;;;20.90;12.50;;;;;;;-0.56;63.97;101074.98;107728;1251;71726;-40
2023/02/07 09:16:13;;;;;;;17.10;12.90;;;;;;;-0.69;63.68;101077.34;107746;1251;69694;-40
2023/02/07 09:18:42;;;;;;;20.20;13.30;;;;;;;-0.83;63.76;101075.89;107703;1251;73912;-40
2023/02/07 09:21:11;;;;;;;21.50;13.60;;;;;;;-0.94;63.89;101075.13;107698;1251;60671;-40
2023/02/07 09:23:39;;;;;;;21.00;13.00;;;;;;;-1.07;64.07;101076.08;107720;1251;61615;-40
2023/02/07 09:26:08;;;;;;;19.20;13.40;;;;;;;-1.14;64.55;101078.25;107708;1251;73903;-40
2023/02/07 09:28:38;;;;;;;19.70;13.30;;;;;;;-1.22;64.90;101077.11;107741;1257;69910;-40
2023/02/07 09:31:08;;;;;;;22.20;13.70;;;;;;;-1.28;64.81;101077.46;107707;1251;75022;-40
2023/02/07 09:33:37;;;;;;;22.90;14.40;;;;;;;-1.39;64.32;101078.52;106959;1251;1003756;-40
2023/02/07 09:36:14;;;;;;;20.10;14.10;;;;;;;-1.51;64.84;101076.95;107716;1251;61358;-40
2023/02/07 09:38:43;;;;;;;20.10;14.10;;;;;;;-1.80;65.22;101050.56;107655;1256;73161;-40
2023/02/07 09:41:30;;;;;;;25.20;15.60;;;;;;;-1.72;65.85;101079.19;107704;1251;69993;-40
2023/02/07 09:44:04;;;;;;;27.70;15.40;;;;;;;-1.71;66.17;101079.76;107651;1251;73727;-40
2023/02/07 09:46:41;;;;;;;23.10;15.10;;;;;;;-1.65;66.51;101079.29;107739;1251;60070;-40
2023/02/07 09:49:32;;;;;;;28.90;17.00;;;;;;;-1.59;66.20;101076.16;107702;1255;61412;-40
2023/02/07 09:52:03;;;;;;;25.50;16.70;;;;;;;-1.51;66.20;101078.50;107405;1251;74130;-40
2023/02/07 09:54:38;;;;;;;;;;;;;;;-1.50;66.10;101083.09;107707;1251;70421;-40
2023/02/07 09:57:12;;;;;;;23.50;14.00;;;;;;;-1.51;65.64;101078.77;107714;1251;73851;-40
2023/02/07 09:59:54;;;;;;;23.00;14.50;;;;;;;-1.41;64.88;101083.09;107804;1251;60735;-40
2023/02/07 10:02:28;;;;;;;25.60;14.80;;;;;;;-1.19;65.23;101086.30;107671;1251;61387;-40
2023/02/07 10:05:00;;;;;;;23.20;14.70;;;;;;;-0.94;64.37;101084.61;107750;1251;72967;-40
2023/02/07 10:07:30;;;;;;;21.40;14.40;;;;;;;-0.64;63.64;101091.10;107729;1251;69918;-40
2023/02/07 10:09:58;;;;;;;20.50;13.20;;;;;;;-0.43;63.04;101084.18;107725;1251;73863;-41
2023/02/07 10:12:41;;;;;;;20.30;14.70;;;;;;;-0.34;62.30;101083.75;107537;1251;60807;-40
2023/02/07 10:15:23;;;;;;;23.50;15.10;;;;;;;-0.33;61.90;101086.23;107708;1251;61522;-40
2023/02/07 10:18:00;;;;;;;21.00;14.00;;;;;;;-0.27;61.16;101087.23;107692;1251;74337;-40
2023/02/07 10:20:34;;;;;;;25.10;14.00;;;;;;;-0.29;60.56;101082.20;107720;1251;69874;-40
2023/02/07 10:23:18;;;;;;;20.40;14.10;;;;;;;-0.32;60.69;101084.76;106927;1255;1003790;-40
2023/02/07 10:25:54;;;;;;;22.30;15.20;;;;;;;-0.28;60.83;101087.33;107662;1251;59793;-40
2023/02/07 10:28:39;;;;;;;20.30;13.70;;;;;;;-0.20;60.32;101086.94;107664;1251;61646;-40
2023/02/07 10:31:12;;;;;;;23.40;14.90;;;;;;;0.07;60.02;101087.30;107717;1251;74178;-40
2023/02/07 10:33:46;;;;;;;19.90;13.20;;;;;;;0.26;57.98;101083.48;107045;1251;1003062;-40
2023/02/07 10:36:14;;;;;;;19.90;13.00;;;;;;;0.31;57.91;101089.98;107626;1252;71906;-40
2023/02/07 10:38:46;;;;;;;19.00;13.30;;;;;;;0.30;57.45;101084.86;107699;1252;60740;-40
2023/02/07 10:41:36;;;;;;;16.50;12.40;;;;;;;0.24;57.26;101091.51;107693;1253;61536;-40
2023/02/07 10:44:06;;;;;;;20.80;13.00;;;;;;;0.17;57.33;101090.63;106912;1254;1003757;-40
2023/02/07 10:46:35;;;;;;;21.70;14.20;;;;;;;0.13;57.37;101093.95;107667;1254;68038;-40
2023/02/07 10:49:04;;;;;;;18.90;13.30;;;;;;;0.03;57.15;101096.58;106965;1253;1005522;-40
2023/02/07 10:51:35;;;;;;;22.10;14.00;;;;;;;-0.15;57.24;101096.50;107723;1254;59805;-40
2023/02/07 10:54:10;;;;;;;;;;;;;;;-0.32;57.84;101094.80;107716;1254;60418;-40
2023/02/07 10:56:41;;;;;;;25.90;14.80;;;;;;;-0.53;58.68;101099.86;107709;1252;74715;-40
2023/02/07 10:59:44;;;;;;;21.10;14.00;;;;;;;-0.63;59.42;101104.27;107661;1256;69134;-40
2023/02/07 11:02:29;;;;;;;18.60;11.90;;;;;;;-0.66;59.36;101103.91;107616;1254;73715;-40
2023/02/07 11:04:59;;;;;;;17.60;12.60;;;;;;;-0.67;59.51;101104.27;107675;1256;60500;-40
2023/02/07 11:07:28;;;;;;;22.50;13.70;;;;;;;-0.69;59.61;101105.98;107753;1254;60947;-40
2023/02/07 11:10:14;;;;;;;20.50;13.60;;;;;;;-0.73;59.55;101104.11;107672;1252;75041;-40
2023/02/07 11:12:45;;;;;;;22.50;13.30;;;;;;;-0.85;58.94;101107.23;106942;1254;1002576;-40
2023/02/07 11:15:50;;;;;;;18.10;12.10;;;;;;;-0.94;59.12;101113.27;107695;1254;73833;-40
2023/02/07 11:18:38;;;;;;;17.20;11.00;;;;;;;-1.03;58.52;101115.11;107681;1256;60796;-40
2023/02/07 11:21:27;;;;;;;17.20;10.70;;;;;;;-1.14;58.14;101117.70;107708;1253;61506;-40
2023/02/07 11:24:00;;;;;;;;;;;;;;;-1.23;58.32;101113.01;106969;1254;1003072;-40
2023/02/07 11:26:30;;;;;;;17.80;11.00;;;;;;;-1.40;58.69;101115.35;107696;1256;69935;-40
2023/02/07 11:29:05;;;;;;;16.40;11.30;;;;;;;-1.42;59.54;101119.05;107693;1254;74160;-40
2023/02/07 11:31:36;;;;;;;18.80;10.40;;;;;;;-1.34;59.75;101122.34;107665;1256;60385;-40